sensor_id;sensor_type;location;lat;lon;timestamp;temperature;humidity
41324;DHT22;27073;51.128;4.220;2023-05-15T00:00:24;12.50;98.60
41324;DHT22;27073;51.128;4.220;2023-05-15T00:02:50;12.20;99.90
41324;DHT22;27073;51.128;4.220;2023-05-15T00:05:16;12.00;99.90
41324;DHT22;27073;51.128;4.220;2023-05-15T00:07:41;12.20;99.90
41324;DHT22;27073;51.128;4.220;2023-05-15T00:10:09;11.80;99.90
41324;DHT22;27073;51.128;4.220;2023-05-15T00:12:35;11.90;99.90
41324;DHT22;27073;51.128;4.220;2023-05-15T00:15:01;11.90;99.90
41324;DHT22;27073;51.128;4.220;2023-05-15T00:17:27;12.00;99.90
41324;DHT22;27073;51.128;4.220;2023-05-15T00:19:52;12.00;99.90
41324;DHT22;27073;51.128;4.220;2023-05-15T00:22:23;12.10;99.90
41324;DHT22;27073;51.128;4.220;2023-05-15T00:24:50;11.90;99.90
41324;DHT22;27073;51.128;4.220;2023-05-15T00:27:16;12.00;99.90
41324;DHT22;27073;51.128;4.220;2023-05-15T00:29:42;12.10;99.90
41324;DHT22;27073;51.128;4.220;2023-05-15T00:32:07;11.80;99.90
41324;DHT22;27073;51.128;4.220;2023-05-15T00:34:33;12.00;99.90
41324;DHT22;27073;51.128;4.220;2023-05-15T00:36:59;11.80;99.90
41324;DHT22;27073;51.128;4.220;2023-05-15T00:39:25;12.10;99.90
41324;DHT22;27073;51.128;4.220;2023-05-15T00:41:51;12.10;99.90
41324;DHT22;27073;51.128;4.220;2023-05-15T00:44:18;12.00;99.90
41324;DHT22;27073;51.128;4.220;2023-05-15T00:46:47;11.90;99.90
41324;DHT22;27073;51.128;4.220;2023-05-15T00:49:14;11.60;99.90
41324;DHT22;27073;51.128;4.220;2023-05-15T00:51:41;11.70;99.90
41324;DHT22;27073;51.128;4.220;2023-05-15T00:54:08;11.70;99.90
41324;DHT22;27073;51.128;4.220;2023-05-15T00:56:34;11.70;99.90
41324;DHT22;27073;51.128;4.220;2023-05-15T00:59:04;11.60;99.90
41324;DHT22;27073;51.128;4.220;2023-05-15T01:01:31;11.50;99.90
41324;DHT22;27073;51.128;4.220;2023-05-15T01:04:02;11.40;99.90
41324;DHT22;27073;51.128;4.220;2023-05-15T01:06:31;11.70;99.90
41324;DHT22;27073;51.128;4.220;2023-05-15T01:08:59;11.70;99.90
41324;DHT22;27073;51.128;4.220;2023-05-15T01:11:28;11.90;99.90
41324;DHT22;27073;51.128;4.220;2023-05-15T01:14:05;12.00;99.90
41324;DHT22;27073;51.128;4.220;2023-05-15T01:16:32;11.90;99.90
41324;DHT22;27073;51.128;4.220;2023-05-15T01:18:58;11.50;99.90
41324;DHT22;27073;51.128;4.220;2023-05-15T01:21:38;11.40;99.90
41324;DHT22;27073;51.128;4.220;2023-05-15T01:32:22;11.90;99.90
41324;DHT22;27073;51.128;4.220;2023-05-15T01:35:12;12.00;99.90
41324;DHT22;27073;51.128;4.220;2023-05-15T01:37:43;12.10;99.90
41324;DHT22;27073;51.128;4.220;2023-05-15T01:40:11;12.00;99.90
41324;DHT22;27073;51.128;4.220;2023-05-15T01:42:41;11.90;99.90
41324;DHT22;27073;51.128;4.220;2023-05-15T01:45:10;11.90;99.90
41324;DHT22;27073;51.128;4.220;2023-05-15T01:47:43;11.70;99.90
41324;DHT22;27073;51.128;4.220;2023-05-15T01:50:12;11.90;99.90
41324;DHT22;27073;51.128;4.220;2023-05-15T01:52:40;12.10;99.90
41324;DHT22;27073;51.128;4.220;2023-05-15T01:55:07;12.20;99.90
41324;DHT22;27073;51.128;4.220;2023-05-15T01:57:35;12.30;99.90
41324;DHT22;27073;51.128;4.220;2023-05-15T02:00:02;12.30;99.90
41324;DHT22;27073;51.128;4.220;2023-05-15T02:02:29;12.40;99.90
41324;DHT22;27073;51.128;4.220;2023-05-15T02:04:56;12.20;99.90
41324;DHT22;27073;51.128;4.220;2023-05-15T02:07:23;12.20;99.90
41324;DHT22;27073;51.128;4.220;2023-05-15T02:09:50;12.30;99.90
41324;DHT22;27073;51.128;4.220;2023-05-15T02:12:17;12.50;99.90
41324;DHT22;27073;51.128;4.220;2023-05-15T02:14:44;12.40;99.90
41324;DHT22;27073;51.128;4.220;2023-05-15T02:17:11;12.40;99.90
41324;DHT22;27073;51.128;4.220;2023-05-15T02:19:36;11.80;99.90
41324;DHT22;27073;51.128;4.220;2023-05-15T02:22:02;12.00;99.90
41324;DHT22;27073;51.128;4.220;2023-05-15T02:24:28;12.00;99.90
41324;DHT22;27073;51.128;4.220;2023-05-15T02:27:23;12.00;99.90
41324;DHT22;27073;51.128;4.220;2023-05-15T02:32:38;11.50;99.90
41324;DHT22;27073;51.128;4.220;2023-05-15T02:35:10;11.60;99.90
41324;DHT22;27073;51.128;4.220;2023-05-15T02:37:39;11.70;99.90
41324;DHT22;27073;51.128;4.220;2023-05-15T02:40:10;11.60;99.90
41324;DHT22;27073;51.128;4.220;2023-05-15T02:42:39;11.80;99.90
41324;DHT22;27073;51.128;4.220;2023-05-15T02:45:07;12.00;99.90
41324;DHT22;27073;51.128;4.220;2023-05-15T02:47:34;12.30;99.90
41324;DHT22;27073;51.128;4.220;2023-05-15T02:50:01;11.90;99.90
41324;DHT22;27073;51.128;4.220;2023-05-15T02:52:33;11.80;99.90
41324;DHT22;27073;51.128;4.220;2023-05-15T02:54:59;11.50;99.90
41324;DHT22;27073;51.128;4.220;2023-05-15T02:57:25;11.60;99.90
41324;DHT22;27073;51.128;4.220;2023-05-15T02:59:53;12.00;99.90
41324;DHT22;27073;51.128;4.220;2023-05-15T03:02:19;12.20;99.90
41324;DHT22;27073;51.128;4.220;2023-05-15T03:04:45;12.20;99.90
41324;DHT22;27073;51.128;4.220;2023-05-15T03:07:10;12.10;99.90
41324;DHT22;27073;51.128;4.220;2023-05-15T03:09:36;11.60;99.90
41324;DHT22;27073;51.128;4.220;2023-05-15T03:12:02;11.40;99.90
41324;DHT22;27073;51.128;4.220;2023-05-15T03:14:28;11.50;99.90
41324;DHT22;27073;51.128;4.220;2023-05-15T03:16:54;11.60;99.90
41324;DHT22;27073;51.128;4.220;2023-05-15T03:19:20;11.80;99.90
41324;DHT22;27073;51.128;4.220;2023-05-15T03:21:46;12.00;99.90
41324;DHT22;27073;51.128;4.220;2023-05-15T03:24:11;11.70;99.90
41324;DHT22;27073;51.128;4.220;2023-05-15T03:26:37;11.80;99.90
41324;DHT22;27073;51.128;4.220;2023-05-15T03:29:04;11.70;99.90
41324;DHT22;27073;51.128;4.220;2023-05-15T03:31:30;11.60;99.90
41324;DHT22;27073;51.128;4.220;2023-05-15T03:33:56;11.70;99.90
41324;DHT22;27073;51.128;4.220;2023-05-15T03:36:22;11.60;99.90
41324;DHT22;27073;51.128;4.220;2023-05-15T03:38:48;11.50;99.90
41324;DHT22;27073;51.128;4.220;2023-05-15T03:41:14;11.60;99.90
41324;DHT22;27073;51.128;4.220;2023-05-15T03:43:39;11.50;99.90
41324;DHT22;27073;51.128;4.220;2023-05-15T03:46:05;11.70;99.90
41324;DHT22;27073;51.128;4.220;2023-05-15T03:48:33;11.40;99.90
41324;DHT22;27073;51.128;4.220;2023-05-15T03:50:59;11.30;99.90
41324;DHT22;27073;51.128;4.220;2023-05-15T03:53:24;11.40;99.90
41324;DHT22;27073;51.128;4.220;2023-05-15T03:55:51;11.30;99.90
41324;DHT22;27073;51.128;4.220;2023-05-15T03:58:18;11.10;99.90
41324;DHT22;27073;51.128;4.220;2023-05-15T04:00:43;11.10;99.90
41324;DHT22;27073;51.128;4.220;2023-05-15T04:03:09;10.70;99.90
41324;DHT22;27073;51.128;4.220;2023-05-15T04:05:35;10.80;99.90
41324;DHT22;27073;51.128;4.220;2023-05-15T04:08:00;11.10;99.90
41324;DHT22;27073;51.128;4.220;2023-05-15T04:10:26;11.10;99.90
41324;DHT22;27073;51.128;4.220;2023-05-15T04:12:52;10.90;99.90
41324;DHT22;27073;51.128;4.220;2023-05-15T04:15:19;11.00;99.90
41324;DHT22;27073;51.128;4.220;2023-05-15T04:17:47;11.00;99.90
41324;DHT22;27073;51.128;4.220;2023-05-15T04:20:15;10.70;99.90
41324;DHT22;27073;51.128;4.220;2023-05-15T04:22:42;10.70;99.90
41324;DHT22;27073;51.128;4.220;2023-05-15T04:25:09;10.90;99.90
41324;DHT22;27073;51.128;4.220;2023-05-15T04:27:36;11.20;99.90
41324;DHT22;27073;51.128;4.220;2023-05-15T04:30:03;11.20;99.90
41324;DHT22;27073;51.128;4.220;2023-05-15T04:32:30;11.40;99.90
41324;DHT22;27073;51.128;4.220;2023-05-15T04:34:59;11.20;99.90
41324;DHT22;27073;51.128;4.220;2023-05-15T04:37:26;10.60;99.90
41324;DHT22;27073;51.128;4.220;2023-05-15T04:39:52;10.60;99.90
41324;DHT22;27073;51.128;4.220;2023-05-15T04:42:17;10.50;99.90
41324;DHT22;27073;51.128;4.220;2023-05-15T04:44:43;10.70;99.90
41324;DHT22;27073;51.128;4.220;2023-05-15T04:47:09;10.40;99.90
41324;DHT22;27073;51.128;4.220;2023-05-15T04:49:36;10.40;99.90
41324;DHT22;27073;51.128;4.220;2023-05-15T04:52:02;10.40;99.90
41324;DHT22;27073;51.128;4.220;2023-05-15T04:54:28;10.50;99.90
41324;DHT22;27073;51.128;4.220;2023-05-15T04:56:54;10.20;99.90
41324;DHT22;27073;51.128;4.220;2023-05-15T04:59:20;10.10;99.90
41324;DHT22;27073;51.128;4.220;2023-05-15T05:01:45;10.20;99.90
41324;DHT22;27073;51.128;4.220;2023-05-15T05:04:11;10.20;99.90
41324;DHT22;27073;51.128;4.220;2023-05-15T05:06:37;10.40;99.90
41324;DHT22;27073;51.128;4.220;2023-05-15T05:09:02;10.50;99.90
41324;DHT22;27073;51.128;4.220;2023-05-15T05:11:29;10.30;99.90
41324;DHT22;27073;51.128;4.220;2023-05-15T05:13:54;10.10;99.90
41324;DHT22;27073;51.128;4.220;2023-05-15T05:16:20;10.10;99.90
41324;DHT22;27073;51.128;4.220;2023-05-15T05:18:46;10.10;99.90
41324;DHT22;27073;51.128;4.220;2023-05-15T05:21:11;10.10;99.90
41324;DHT22;27073;51.128;4.220;2023-05-15T05:23:37;10.10;99.90
41324;DHT22;27073;51.128;4.220;2023-05-15T05:26:03;10.00;99.90
41324;DHT22;27073;51.128;4.220;2023-05-15T05:28:28;9.90;99.90
41324;DHT22;27073;51.128;4.220;2023-05-15T05:30:54;10.10;99.90
41324;DHT22;27073;51.128;4.220;2023-05-15T05:33:20;10.30;99.90
41324;DHT22;27073;51.128;4.220;2023-05-15T05:35:45;10.40;99.90
41324;DHT22;27073;51.128;4.220;2023-05-15T05:38:11;10.30;99.90
41324;DHT22;27073;51.128;4.220;2023-05-15T05:40:37;10.60;99.90
41324;DHT22;27073;51.128;4.220;2023-05-15T05:43:03;10.90;99.90
41324;DHT22;27073;51.128;4.220;2023-05-15T05:45:28;11.30;99.90
41324;DHT22;27073;51.128;4.220;2023-05-15T05:47:55;11.20;99.90
41324;DHT22;27073;51.128;4.220;2023-05-15T05:50:22;11.20;99.90
41324;DHT22;27073;51.128;4.220;2023-05-15T05:52:48;11.50;99.90
41324;DHT22;27073;51.128;4.220;2023-05-15T05:55:13;11.70;99.90
41324;DHT22;27073;51.128;4.220;2023-05-15T05:57:39;11.60;99.90
41324;DHT22;27073;51.128;4.220;2023-05-15T06:00:05;11.80;99.90
41324;DHT22;27073;51.128;4.220;2023-05-15T06:02:38;11.90;99.90
41324;DHT22;27073;51.128;4.220;2023-05-15T06:05:05;12.10;99.90
41324;DHT22;27073;51.128;4.220;2023-05-15T06:07:33;11.70;99.90
41324;DHT22;27073;51.128;4.220;2023-05-15T06:09:58;11.50;99.90
41324;DHT22;27073;51.128;4.220;2023-05-15T06:12:24;11.80;99.90
41324;DHT22;27073;51.128;4.220;2023-05-15T06:14:50;12.00;99.90
41324;DHT22;27073;51.128;4.220;2023-05-15T06:17:16;12.00;99.90
41324;DHT22;27073;51.128;4.220;2023-05-15T06:19:41;11.80;99.90
41324;DHT22;27073;51.128;4.220;2023-05-15T06:22:07;11.90;99.90
41324;DHT22;27073;51.128;4.220;2023-05-15T06:24:33;11.80;99.90
41324;DHT22;27073;51.128;4.220;2023-05-15T06:26:59;11.60;99.90
41324;DHT22;27073;51.128;4.220;2023-05-15T06:29:25;11.30;99.90
41324;DHT22;27073;51.128;4.220;2023-05-15T06:31:51;11.10;99.90
41324;DHT22;27073;51.128;4.220;2023-05-15T06:34:17;11.40;99.90
41324;DHT22;27073;51.128;4.220;2023-05-15T06:36:43;11.40;99.90
41324;DHT22;27073;51.128;4.220;2023-05-15T06:39:09;11.30;99.90
41324;DHT22;27073;51.128;4.220;2023-05-15T06:41:36;11.20;99.90
41324;DHT22;27073;51.128;4.220;2023-05-15T06:44:02;11.30;99.90
41324;DHT22;27073;51.128;4.220;2023-05-15T06:46:28;11.40;99.90
41324;DHT22;27073;51.128;4.220;2023-05-15T06:48:54;11.50;99.90
41324;DHT22;27073;51.128;4.220;2023-05-15T06:51:19;11.60;99.90
41324;DHT22;27073;51.128;4.220;2023-05-15T06:53:45;11.80;99.90
41324;DHT22;27073;51.128;4.220;2023-05-15T06:56:11;12.00;99.90
41324;DHT22;27073;51.128;4.220;2023-05-15T06:58:37;11.70;99.90
41324;DHT22;27073;51.128;4.220;2023-05-15T07:01:02;11.60;99.90
41324;DHT22;27073;51.128;4.220;2023-05-15T07:03:31;11.70;99.90
41324;DHT22;27073;51.128;4.220;2023-05-15T07:05:57;11.60;99.90
41324;DHT22;27073;51.128;4.220;2023-05-15T07:08:23;11.70;99.90
41324;DHT22;27073;51.128;4.220;2023-05-15T07:10:48;11.50;99.90
41324;DHT22;27073;51.128;4.220;2023-05-15T07:13:18;11.60;99.90
41324;DHT22;27073;51.128;4.220;2023-05-15T07:15:44;11.60;99.90
41324;DHT22;27073;51.128;4.220;2023-05-15T07:18:10;11.80;99.90
41324;DHT22;27073;51.128;4.220;2023-05-15T07:20:36;11.90;99.90
41324;DHT22;27073;51.128;4.220;2023-05-15T07:23:02;11.90;99.90
41324;DHT22;27073;51.128;4.220;2023-05-15T07:25:28;11.90;99.90
41324;DHT22;27073;51.128;4.220;2023-05-15T07:27:56;12.00;99.90
41324;DHT22;27073;51.128;4.220;2023-05-15T07:30:22;12.10;99.90
41324;DHT22;27073;51.128;4.220;2023-05-15T07:32:48;12.20;99.90
41324;DHT22;27073;51.128;4.220;2023-05-15T07:35:13;12.30;99.90
41324;DHT22;27073;51.128;4.220;2023-05-15T07:37:39;12.40;99.90
41324;DHT22;27073;51.128;4.220;2023-05-15T07:40:06;12.30;99.90
41324;DHT22;27073;51.128;4.220;2023-05-15T07:42:32;12.20;99.90
41324;DHT22;27073;51.128;4.220;2023-05-15T07:45:02;12.10;99.90
41324;DHT22;27073;51.128;4.220;2023-05-15T07:47:28;12.20;99.90
41324;DHT22;27073;51.128;4.220;2023-05-15T07:49:53;12.40;99.90
41324;DHT22;27073;51.128;4.220;2023-05-15T07:52:21;12.50;99.90
41324;DHT22;27073;51.128;4.220;2023-05-15T07:54:47;12.50;99.90
41324;DHT22;27073;51.128;4.220;2023-05-15T07:57:12;12.50;99.90
41324;DHT22;27073;51.128;4.220;2023-05-15T07:59:38;12.80;99.90
41324;DHT22;27073;51.128;4.220;2023-05-15T08:02:04;13.00;99.90
41324;DHT22;27073;51.128;4.220;2023-05-15T08:04:30;12.90;99.90
41324;DHT22;27073;51.128;4.220;2023-05-15T08:06:55;12.80;99.90
41324;DHT22;27073;51.128;4.220;2023-05-15T08:09:21;12.90;99.90
41324;DHT22;27073;51.128;4.220;2023-05-15T08:11:47;12.90;99.90
41324;DHT22;27073;51.128;4.220;2023-05-15T08:14:12;13.10;99.90
41324;DHT22;27073;51.128;4.220;2023-05-15T08:16:38;13.30;99.90
41324;DHT22;27073;51.128;4.220;2023-05-15T08:19:04;13.50;99.90
41324;DHT22;27073;51.128;4.220;2023-05-15T08:21:32;13.60;99.90
41324;DHT22;27073;51.128;4.220;2023-05-15T08:23:58;13.30;99.90
41324;DHT22;27073;51.128;4.220;2023-05-15T08:26:25;13.60;99.90
41324;DHT22;27073;51.128;4.220;2023-05-15T08:28:51;13.30;99.90
41324;DHT22;27073;51.128;4.220;2023-05-15T08:31:16;13.30;99.90
41324;DHT22;27073;51.128;4.220;2023-05-15T08:33:42;13.60;99.90
41324;DHT22;27073;51.128;4.220;2023-05-15T08:36:08;13.70;99.90
41324;DHT22;27073;51.128;4.220;2023-05-15T08:38:34;13.60;99.90
41324;DHT22;27073;51.128;4.220;2023-05-15T08:41:06;13.60;99.90
41324;DHT22;27073;51.128;4.220;2023-05-15T08:43:35;13.10;99.90
41324;DHT22;27073;51.128;4.220;2023-05-15T08:46:05;13.10;99.90
41324;DHT22;27073;51.128;4.220;2023-05-15T08:48:35;13.20;99.90
41324;DHT22;27073;51.128;4.220;2023-05-15T08:51:02;13.30;99.90
41324;DHT22;27073;51.128;4.220;2023-05-15T08:53:28;13.30;99.90
41324;DHT22;27073;51.128;4.220;2023-05-15T08:55:54;13.30;99.90
41324;DHT22;27073;51.128;4.220;2023-05-15T08:58:21;13.30;99.90
41324;DHT22;27073;51.128;4.220;2023-05-15T09:00:50;13.40;99.90
41324;DHT22;27073;51.128;4.220;2023-05-15T09:03:16;13.40;99.90
41324;DHT22;27073;51.128;4.220;2023-05-15T09:05:45;13.70;99.90
41324;DHT22;27073;51.128;4.220;2023-05-15T09:08:13;13.50;99.90
41324;DHT22;27073;51.128;4.220;2023-05-15T09:10:41;13.60;99.90
41324;DHT22;27073;51.128;4.220;2023-05-15T09:13:08;13.20;99.90
41324;DHT22;27073;51.128;4.220;2023-05-15T09:15:34;13.20;99.90
41324;DHT22;27073;51.128;4.220;2023-05-15T09:18:02;13.20;99.90
41324;DHT22;27073;51.128;4.220;2023-05-15T09:20:35;13.40;99.90
41324;DHT22;27073;51.128;4.220;2023-05-15T09:23:03;13.40;99.90
41324;DHT22;27073;51.128;4.220;2023-05-15T09:28:02;13.50;99.90
41324;DHT22;27073;51.128;4.220;2023-05-15T09:30:28;13.50;99.90
41324;DHT22;27073;51.128;4.220;2023-05-15T09:32:59;13.70;99.90
41324;DHT22;27073;51.128;4.220;2023-05-15T09:35:38;13.60;99.90
41324;DHT22;27073;51.128;4.220;2023-05-15T09:38:09;13.40;99.90
41324;DHT22;27073;51.128;4.220;2023-05-15T09:40:37;13.30;99.90
41324;DHT22;27073;51.128;4.220;2023-05-15T09:43:03;13.50;99.90
41324;DHT22;27073;51.128;4.220;2023-05-15T09:45:29;13.40;99.90
41324;DHT22;27073;51.128;4.220;2023-05-15T09:47:58;13.60;99.90
41324;DHT22;27073;51.128;4.220;2023-05-15T09:50:33;13.60;99.90
41324;DHT22;27073;51.128;4.220;2023-05-15T09:52:59;13.50;99.90
41324;DHT22;27073;51.128;4.220;2023-05-15T09:55:25;13.70;99.90
41324;DHT22;27073;51.128;4.220;2023-05-15T09:58:12;13.80;99.90
41324;DHT22;27073;51.128;4.220;2023-05-15T10:00:39;14.10;99.90
41324;DHT22;27073;51.128;4.220;2023-05-15T10:03:06;13.90;99.90
41324;DHT22;27073;51.128;4.220;2023-05-15T10:05:33;13.70;99.90
41324;DHT22;27073;51.128;4.220;2023-05-15T10:07:59;13.70;99.90
41324;DHT22;27073;51.128;4.220;2023-05-15T10:10:26;13.80;99.90
41324;DHT22;27073;51.128;4.220;2023-05-15T10:12:53;13.90;99.90
41324;DHT22;27073;51.128;4.220;2023-05-15T10:15:20;14.00;99.90
41324;DHT22;27073;51.128;4.220;2023-05-15T10:17:47;13.90;99.90
41324;DHT22;27073;51.128;4.220;2023-05-15T10:20:16;13.80;99.90
41324;DHT22;27073;51.128;4.220;2023-05-15T10:22:46;13.90;99.90
41324;DHT22;27073;51.128;4.220;2023-05-15T10:28:11;13.80;99.90
41324;DHT22;27073;51.128;4.220;2023-05-15T10:30:37;13.80;99.90
41324;DHT22;27073;51.128;4.220;2023-05-15T10:33:04;13.70;99.90
41324;DHT22;27073;51.128;4.220;2023-05-15T10:35:31;13.70;99.90
41324;DHT22;27073;51.128;4.220;2023-05-15T10:37:57;13.90;99.90
41324;DHT22;27073;51.128;4.220;2023-05-15T10:40:23;13.80;99.90
41324;DHT22;27073;51.128;4.220;2023-05-15T10:42:49;13.70;99.90
41324;DHT22;27073;51.128;4.220;2023-05-15T10:45:15;13.60;99.90
41324;DHT22;27073;51.128;4.220;2023-05-15T10:47:42;13.60;99.90
41324;DHT22;27073;51.128;4.220;2023-05-15T10:50:09;13.60;99.90
41324;DHT22;27073;51.128;4.220;2023-05-15T10:52:36;13.70;99.90
41324;DHT22;27073;51.128;4.220;2023-05-15T10:55:07;13.50;99.90
41324;DHT22;27073;51.128;4.220;2023-05-15T10:57:34;13.60;99.90
41324;DHT22;27073;51.128;4.220;2023-05-15T11:00:03;13.50;99.90
41324;DHT22;27073;51.128;4.220;2023-05-15T11:02:47;13.50;99.90
41324;DHT22;27073;51.128;4.220;2023-05-15T11:05:13;13.70;99.90
41324;DHT22;27073;51.128;4.220;2023-05-15T11:07:39;13.50;99.90
41324;DHT22;27073;51.128;4.220;2023-05-15T11:13:00;13.40;99.90
41324;DHT22;27073;51.128;4.220;2023-05-15T11:15:26;13.40;99.90
41324;DHT22;27073;51.128;4.220;2023-05-15T11:18:05;13.30;99.90
41324;DHT22;27073;51.128;4.220;2023-05-15T11:20:39;13.30;99.90
41324;DHT22;27073;51.128;4.220;2023-05-15T11:23:05;13.20;99.90
41324;DHT22;27073;51.128;4.220;2023-05-15T11:25:32;13.50;99.90
41324;DHT22;27073;51.128;4.220;2023-05-15T11:27:58;13.60;99.90
41324;DHT22;27073;51.128;4.220;2023-05-15T11:30:35;13.40;99.90
41324;DHT22;27073;51.128;4.220;2023-05-15T11:38:03;13.60;99.90
41324;DHT22;27073;51.128;4.220;2023-05-15T11:40:31;13.40;99.90
41324;DHT22;27073;51.128;4.220;2023-05-15T11:43:05;13.60;99.90
41324;DHT22;27073;51.128;4.220;2023-05-15T11:45:38;13.50;99.90
41324;DHT22;27073;51.128;4.220;2023-05-15T11:48:07;13.40;99.90
41324;DHT22;27073;51.128;4.220;2023-05-15T11:50:34;13.40;99.90
41324;DHT22;27073;51.128;4.220;2023-05-15T11:53:07;13.50;99.90
41324;DHT22;27073;51.128;4.220;2023-05-15T11:55:35;13.80;99.90
41324;DHT22;27073;51.128;4.220;2023-05-15T11:58:01;13.70;99.90
41324;DHT22;27073;51.128;4.220;2023-05-15T12:00:29;13.70;99.90
41324;DHT22;27073;51.128;4.220;2023-05-15T12:02:54;13.50;99.90
41324;DHT22;27073;51.128;4.220;2023-05-15T12:05:20;13.40;99.90
41324;DHT22;27073;51.128;4.220;2023-05-15T12:07:46;13.30;99.90
41324;DHT22;27073;51.128;4.220;2023-05-15T12:10:13;13.20;99.90
41324;DHT22;27073;51.128;4.220;2023-05-15T12:12:43;13.20;99.90
41324;DHT22;27073;51.128;4.220;2023-05-15T12:15:10;13.30;99.90
41324;DHT22;27073;51.128;4.220;2023-05-15T12:17:40;13.10;99.90
41324;DHT22;27073;51.128;4.220;2023-05-15T12:20:17;12.90;99.90
41324;DHT22;27073;51.128;4.220;2023-05-15T12:22:43;12.90;99.90
41324;DHT22;27073;51.128;4.220;2023-05-15T12:25:10;13.00;99.90
41324;DHT22;27073;51.128;4.220;2023-05-15T12:27:37;12.90;99.90
41324;DHT22;27073;51.128;4.220;2023-05-15T12:30:05;12.90;99.90
41324;DHT22;27073;51.128;4.220;2023-05-15T12:32:34;13.00;99.90
41324;DHT22;27073;51.128;4.220;2023-05-15T12:35:00;12.60;99.90
41324;DHT22;27073;51.128;4.220;2023-05-15T12:37:27;12.60;99.90
41324;DHT22;27073;51.128;4.220;2023-05-15T12:39:59;12.40;99.90
41324;DHT22;27073;51.128;4.220;2023-05-15T12:42:26;12.40;99.90
41324;DHT22;27073;51.128;4.220;2023-05-15T12:44:53;12.20;99.90
41324;DHT22;27073;51.128;4.220;2023-05-15T12:47:23;12.10;99.90
41324;DHT22;27073;51.128;4.220;2023-05-15T12:49:49;12.00;99.90
41324;DHT22;27073;51.128;4.220;2023-05-15T12:52:15;12.00;99.90
41324;DHT22;27073;51.128;4.220;2023-05-15T12:54:42;12.00;99.90
41324;DHT22;27073;51.128;4.220;2023-05-15T12:57:09;11.90;99.90
41324;DHT22;27073;51.128;4.220;2023-05-15T12:59:35;11.90;99.90
41324;DHT22;27073;51.128;4.220;2023-05-15T13:02:01;12.00;99.90
41324;DHT22;27073;51.128;4.220;2023-05-15T13:04:27;12.10;99.90
41324;DHT22;27073;51.128;4.220;2023-05-15T13:06:52;12.00;99.90
41324;DHT22;27073;51.128;4.220;2023-05-15T13:09:22;12.10;99.90
41324;DHT22;27073;51.128;4.220;2023-05-15T13:11:48;12.10;99.90
41324;DHT22;27073;51.128;4.220;2023-05-15T13:14:16;12.20;99.90
41324;DHT22;27073;51.128;4.220;2023-05-15T13:16:44;12.30;99.90
41324;DHT22;27073;51.128;4.220;2023-05-15T13:19:11;12.40;99.90
41324;DHT22;27073;51.128;4.220;2023-05-15T13:21:37;12.40;99.90
41324;DHT22;27073;51.128;4.220;2023-05-15T13:24:03;12.30;99.90
41324;DHT22;27073;51.128;4.220;2023-05-15T13:26:29;12.20;99.90
41324;DHT22;27073;51.128;4.220;2023-05-15T13:28:55;12.20;99.90
41324;DHT22;27073;51.128;4.220;2023-05-15T13:31:20;12.20;99.90
41324;DHT22;27073;51.128;4.220;2023-05-15T13:33:47;12.40;99.90
41324;DHT22;27073;51.128;4.220;2023-05-15T13:36:12;12.50;99.90
41324;DHT22;27073;51.128;4.220;2023-05-15T13:38:38;12.50;99.90
41324;DHT22;27073;51.128;4.220;2023-05-15T13:41:04;12.50;99.90
41324;DHT22;27073;51.128;4.220;2023-05-15T13:43:30;12.50;99.90
41324;DHT22;27073;51.128;4.220;2023-05-15T13:45:56;12.50;99.90
41324;DHT22;27073;51.128;4.220;2023-05-15T13:48:22;12.40;99.90
41324;DHT22;27073;51.128;4.220;2023-05-15T13:50:47;12.40;99.90
41324;DHT22;27073;51.128;4.220;2023-05-15T13:53:13;12.40;99.90
41324;DHT22;27073;51.128;4.220;2023-05-15T13:55:44;12.40;99.90
41324;DHT22;27073;51.128;4.220;2023-05-15T13:58:13;12.30;99.90
41324;DHT22;27073;51.128;4.220;2023-05-15T14:00:40;12.30;99.90
41324;DHT22;27073;51.128;4.220;2023-05-15T14:03:06;12.20;99.90
41324;DHT22;27073;51.128;4.220;2023-05-15T14:05:32;12.30;99.90
41324;DHT22;27073;51.128;4.220;2023-05-15T14:07:58;12.30;99.90
41324;DHT22;27073;51.128;4.220;2023-05-15T14:10:24;12.10;99.90
41324;DHT22;27073;51.128;4.220;2023-05-15T14:12:50;12.10;99.90
41324;DHT22;27073;51.128;4.220;2023-05-15T14:15:16;12.20;99.90
41324;DHT22;27073;51.128;4.220;2023-05-15T14:17:42;12.40;99.90
41324;DHT22;27073;51.128;4.220;2023-05-15T14:20:09;12.40;99.90
41324;DHT22;27073;51.128;4.220;2023-05-15T14:22:36;12.20;99.90
41324;DHT22;27073;51.128;4.220;2023-05-15T14:25:03;12.30;99.90
41324;DHT22;27073;51.128;4.220;2023-05-15T14:27:30;12.50;99.90
41324;DHT22;27073;51.128;4.220;2023-05-15T14:29:55;12.40;99.90
41324;DHT22;27073;51.128;4.220;2023-05-15T14:32:22;12.50;99.90
41324;DHT22;27073;51.128;4.220;2023-05-15T14:34:48;12.40;99.90
41324;DHT22;27073;51.128;4.220;2023-05-15T14:37:14;12.50;99.90
41324;DHT22;27073;51.128;4.220;2023-05-15T14:39:40;12.50;99.90
41324;DHT22;27073;51.128;4.220;2023-05-15T14:42:06;12.50;99.90
41324;DHT22;27073;51.128;4.220;2023-05-15T14:44:32;12.50;99.90
41324;DHT22;27073;51.128;4.220;2023-05-15T14:47:09;12.50;99.90
41324;DHT22;27073;51.128;4.220;2023-05-15T14:49:37;12.60;99.90
41324;DHT22;27073;51.128;4.220;2023-05-15T14:52:05;12.60;99.90
41324;DHT22;27073;51.128;4.220;2023-05-15T14:54:32;12.70;99.90
41324;DHT22;27073;51.128;4.220;2023-05-15T14:56:57;12.60;99.90
41324;DHT22;27073;51.128;4.220;2023-05-15T14:59:26;12.60;99.90
41324;DHT22;27073;51.128;4.220;2023-05-15T15:01:52;12.30;99.90
41324;DHT22;27073;51.128;4.220;2023-05-15T15:04:18;12.30;99.90
41324;DHT22;27073;51.128;4.220;2023-05-15T15:06:45;12.30;99.90
41324;DHT22;27073;51.128;4.220;2023-05-15T15:09:11;12.20;99.90
41324;DHT22;27073;51.128;4.220;2023-05-15T15:11:37;12.20;99.90
41324;DHT22;27073;51.128;4.220;2023-05-15T15:14:03;12.20;99.90
41324;DHT22;27073;51.128;4.220;2023-05-15T15:16:29;12.20;99.90
41324;DHT22;27073;51.128;4.220;2023-05-15T15:18:54;12.30;99.90
41324;DHT22;27073;51.128;4.220;2023-05-15T15:21:20;12.30;99.90
41324;DHT22;27073;51.128;4.220;2023-05-15T15:23:46;12.40;99.90
41324;DHT22;27073;51.128;4.220;2023-05-15T15:26:13;12.50;99.90
41324;DHT22;27073;51.128;4.220;2023-05-15T15:28:39;12.60;99.90
41324;DHT22;27073;51.128;4.220;2023-05-15T15:31:04;12.60;99.90
41324;DHT22;27073;51.128;4.220;2023-05-15T15:33:30;12.60;99.90
41324;DHT22;27073;51.128;4.220;2023-05-15T15:35:56;12.60;99.90
41324;DHT22;27073;51.128;4.220;2023-05-15T15:38:22;12.60;99.90
41324;DHT22;27073;51.128;4.220;2023-05-15T15:40:48;12.60;99.90
41324;DHT22;27073;51.128;4.220;2023-05-15T15:43:14;12.60;99.90
41324;DHT22;27073;51.128;4.220;2023-05-15T15:45:40;12.60;99.90
41324;DHT22;27073;51.128;4.220;2023-05-15T15:48:06;12.60;99.90
41324;DHT22;27073;51.128;4.220;2023-05-15T15:50:31;12.60;99.90
41324;DHT22;27073;51.128;4.220;2023-05-15T15:52:57;12.70;99.90